createdAt,value
2022-08-05T00:00:02.025Z,6.40
2022-08-05T00:02:11.402Z,6.50
2022-08-05T00:04:17.553Z,6.50
2022-08-05T00:06:32.462Z,6.90
2022-08-05T00:08:38.490Z,6.00
2022-08-05T00:10:43.291Z,6.50
2022-08-05T00:12:56.350Z,6.70
2022-08-05T00:15:54.225Z,7.20
2022-08-05T00:17:26.579Z,7.80
2022-08-05T00:19:33.845Z,7.30
2022-08-05T00:21:50.778Z,6.60
2022-08-05T00:24:11.011Z,8.00
2022-08-05T00:26:17.696Z,7.60
2022-08-05T00:28:29.512Z,6.90
2022-08-05T00:30:34.984Z,7.10
2022-08-05T00:32:41.132Z,7.30
2022-08-05T00:35:04.133Z,7.10
2022-08-05T00:37:14.264Z,6.70
2022-08-05T00:39:19.372Z,7.20
2022-08-05T00:41:52.043Z,7.80
2022-08-05T00:43:57.153Z,7.40
2022-08-05T00:46:02.021Z,8.50
2022-08-05T00:48:08.286Z,7.10
2022-08-05T00:50:14.535Z,7.40
2022-08-05T00:52:28.458Z,7.30
2022-08-05T00:54:33.711Z,7.20
2022-08-05T00:56:38.793Z,7.30
2022-08-05T00:58:56.279Z,6.60
2022-08-05T01:01:01.799Z,7.20
2022-08-05T01:03:22.686Z,7.90
2022-08-05T01:05:28.532Z,7.90
2022-08-05T01:07:33.399Z,7.00
2022-08-05T01:09:38.359Z,7.90
2022-08-05T01:11:43.985Z,7.70
2022-08-05T01:14:00.258Z,8.20
2022-08-05T01:16:13.004Z,9.30
2022-08-05T01:18:25.041Z,7.40
2022-08-05T01:20:40.627Z,7.20
2022-08-05T01:23:13.598Z,8.10
2022-08-05T01:25:40.199Z,8.40
2022-08-05T01:28:13.540Z,7.60
2022-08-05T01:30:18.793Z,9.00
2022-08-05T01:32:27.716Z,8.60
2022-08-05T01:34:36.357Z,8.80
2022-08-05T01:36:47.082Z,8.10
2022-08-05T01:38:53.336Z,7.20
2022-08-05T01:41:00.002Z,8.40
2022-08-05T01:43:09.759Z,8.40
2022-08-05T01:45:34.745Z,8.40
2022-08-05T01:47:43.174Z,6.90
2022-08-05T01:50:01.704Z,7.00
2022-08-05T01:52:17.418Z,7.80
2022-08-05T01:54:25.651Z,7.80
2022-08-05T01:58:11.342Z,7.60
2022-08-05T01:59:01.081Z,8.90
2022-08-05T02:01:08.181Z,8.60
2022-08-05T02:03:29.089Z,7.70
2022-08-05T02:05:38.948Z,8.50
2022-08-05T02:07:57.822Z,8.30
2022-08-05T02:10:07.875Z,7.20
2022-08-05T02:12:18.545Z,7.50
2022-08-05T02:14:32.059Z,7.80
2022-08-05T02:16:45.012Z,9.50
2022-08-05T02:18:53.290Z,12.30
2022-08-05T02:21:05.689Z,19.70
2022-08-05T02:23:13.719Z,31.90
2022-08-05T02:25:24.724Z,11.50
2022-08-05T02:27:58.547Z,7.70
2022-08-05T02:30:02.059Z,13.80
2022-08-05T02:32:11.236Z,15.50
2022-08-05T02:34:18.171Z,9.30
2022-08-05T02:36:27.487Z,10.30
2022-08-05T02:38:37.766Z,8.70
2022-08-05T02:40:44.880Z,8.20
2022-08-05T02:42:54.325Z,8.60
2022-08-05T02:45:01.740Z,8.10
2022-08-05T02:47:09.026Z,9.00
2022-08-05T02:49:17.328Z,7.60
2022-08-05T02:51:28.168Z,7.30
2022-08-05T02:53:49.699Z,8.40
2022-08-05T02:56:02.045Z,7.70
2022-08-05T02:58:11.318Z,7.40
2022-08-05T03:00:27.028Z,7.80
2022-08-05T03:02:37.480Z,9.00
2022-08-05T03:04:43.756Z,8.00
2022-08-05T03:06:55.891Z,7.30
2022-08-05T03:09:05.192Z,7.00
2022-08-05T03:11:56.028Z,10.90
2022-08-05T03:13:51.426Z,8.30
2022-08-05T03:16:07.788Z,9.50
2022-08-05T03:18:14.775Z,7.80
2022-08-05T03:20:22.265Z,9.20
2022-08-05T03:22:32.399Z,8.70
2022-08-05T03:24:40.666Z,9.00
2022-08-05T03:26:51.839Z,9.00
2022-08-05T03:28:56.615Z,7.90
2022-08-05T03:31:02.988Z,8.60
2022-08-05T03:33:08.115Z,7.50
2022-08-05T03:35:13.497Z,7.80
2022-08-05T03:37:18.680Z,7.40
2022-08-05T03:39:27.320Z,8.00
2022-08-05T03:41:32.933Z,7.70
2022-08-05T03:44:09.663Z,8.00
2022-08-05T03:46:04.319Z,7.30
2022-08-05T03:48:09.217Z,7.20
2022-08-05T03:50:14.127Z,7.80
2022-08-05T03:52:38.383Z,7.40
2022-08-05T03:56:05.686Z,8.00
2022-08-05T03:57:35.146Z,8.70
2022-08-05T03:59:54.875Z,7.60
2022-08-05T04:02:01.786Z,7.40
2022-08-05T04:04:10.965Z,9.20
2022-08-05T04:06:17.989Z,8.60
2022-08-05T04:08:35.155Z,8.30
2022-08-05T04:10:42.177Z,8.50
2022-08-05T04:12:48.005Z,8.40
2022-08-05T04:14:53.091Z,8.50
2022-08-05T04:17:04.715Z,8.30
2022-08-05T04:19:12.936Z,7.80
2022-08-05T04:21:45.749Z,9.30
2022-08-05T04:24:05.344Z,9.30
2022-08-05T04:26:08.236Z,8.30
2022-08-05T04:28:18.814Z,6.90
2022-08-05T04:30:24.450Z,7.00
2022-08-05T04:32:33.332Z,8.10
2022-08-05T04:34:42.708Z,10.30
2022-08-05T04:36:50.402Z,7.60
2022-08-05T04:38:55.294Z,7.90
2022-08-05T04:41:01.860Z,7.70
2022-08-05T04:43:11.040Z,8.60
2022-08-05T04:45:31.244Z,8.10
2022-08-05T04:47:47.359Z,8.00
2022-08-05T04:50:01.782Z,7.50
2022-08-05T04:52:11.404Z,8.30
2022-08-05T04:54:16.537Z,7.60
2022-08-05T04:56:34.537Z,7.00
2022-08-05T04:58:41.323Z,8.10
2022-08-05T05:00:46.538Z,7.50
2022-08-05T05:03:03.748Z,8.10
2022-08-05T05:05:16.527Z,7.50
2022-08-05T05:07:32.098Z,8.80
2022-08-05T05:09:38.129Z,7.20
2022-08-05T05:11:53.084Z,7.20
2022-08-05T05:14:00.687Z,7.60
2022-08-05T05:16:07.776Z,7.70
2022-08-05T05:18:15.058Z,9.50
2022-08-05T05:20:33.848Z,7.80
2022-08-05T05:22:40.934Z,7.30
2022-08-05T05:24:58.799Z,7.80
2022-08-05T05:27:04.713Z,8.70
2022-08-05T05:29:14.472Z,8.40
2022-08-05T05:31:19.845Z,7.90
2022-08-05T05:33:25.960Z,9.90
2022-08-05T05:35:37.781Z,7.10
2022-08-05T05:37:59.413Z,7.10
2022-08-05T05:40:07.132Z,7.80
2022-08-05T05:42:12.509Z,8.60
2022-08-05T05:44:36.432Z,7.90
2022-08-05T05:46:42.402Z,7.90
2022-08-05T05:48:49.218Z,7.30
2022-08-05T05:50:54.091Z,8.30
2022-08-05T05:52:59.201Z,8.40
2022-08-05T05:55:13.151Z,9.50
2022-08-05T05:57:19.321Z,9.70
2022-08-05T05:59:24.197Z,8.00
2022-08-05T06:01:37.566Z,8.40
2022-08-05T06:04:01.214Z,7.20
2022-08-05T06:06:09.018Z,10.60
2022-08-05T06:08:13.753Z,9.30
2022-08-05T06:10:18.529Z,8.60
2022-08-05T06:12:23.555Z,8.30
2022-08-05T06:14:33.245Z,10.10
2022-08-05T06:16:39.311Z,9.10
2022-08-05T06:18:44.045Z,7.40
2022-08-05T06:20:54.297Z,7.30
2022-08-05T06:22:59.995Z,9.30
2022-08-05T06:25:59.142Z,8.20
2022-08-05T06:28:10.685Z,8.40
2022-08-05T06:30:04.431Z,8.50
2022-08-05T06:32:21.051Z,7.30
2022-08-05T06:34:30.777Z,7.70
2022-08-05T06:36:53.548Z,8.50
2022-08-05T06:39:00.553Z,8.60
2022-08-05T06:41:07.978Z,7.90
2022-08-05T06:43:59.154Z,8.20
2022-08-05T06:45:44.945Z,6.90
2022-08-05T06:48:44.119Z,8.10
2022-08-05T06:50:28.138Z,8.60
2022-08-05T06:52:37.937Z,9.90
2022-08-05T06:54:45.261Z,9.40
2022-08-05T06:57:58.139Z,7.90
2022-08-05T06:59:21.640Z,8.70
2022-08-05T07:01:32.276Z,8.90
2022-08-05T07:03:37.741Z,8.50
2022-08-05T07:05:42.615Z,8.70
2022-08-05T07:07:47.510Z,8.50
2022-08-05T07:09:55.454Z,7.30
2022-08-05T07:12:03.337Z,7.70
2022-08-05T07:14:15.440Z,8.30
2022-08-05T07:18:02.207Z,7.40
2022-08-05T07:18:50.395Z,9.00
2022-08-05T07:20:56.448Z,10.00
2022-08-05T07:23:01.854Z,7.60
2022-08-05T07:25:22.633Z,9.70
2022-08-05T07:27:58.099Z,9.30
2022-08-05T07:30:24.715Z,8.60
2022-08-05T07:32:26.379Z,8.50
2022-08-05T07:34:31.297Z,8.80
2022-08-05T07:36:37.462Z,7.80
2022-08-05T07:38:44.162Z,7.60
2022-08-05T07:40:49.052Z,8.00
2022-08-05T07:43:04.711Z,6.80
2022-08-05T07:45:19.532Z,9.20
2022-08-05T07:47:44.744Z,10.30
2022-08-05T07:49:54.327Z,9.00
2022-08-05T07:51:59.589Z,7.00
2022-08-05T07:54:04.762Z,9.10
2022-08-05T07:56:39.338Z,7.30
2022-08-05T07:58:58.644Z,7.10
2022-08-05T08:00:59.944Z,7.80
2022-08-05T08:03:13.609Z,7.40
2022-08-05T08:05:19.425Z,7.20
2022-08-05T08:07:24.576Z,8.10
2022-08-05T08:09:33.344Z,12.00
2022-08-05T08:11:47.480Z,8.10
2022-08-05T08:14:01.186Z,7.70
2022-08-05T08:16:35.878Z,7.60
2022-08-05T08:18:31.571Z,7.50
2022-08-05T08:20:59.934Z,6.90
2022-08-05T08:23:03.226Z,8.20
2022-08-05T08:25:15.837Z,7.90
2022-08-05T08:27:22.191Z,7.00
2022-08-05T08:30:04.067Z,7.50
2022-08-05T08:32:06.466Z,7.40
2022-08-05T08:34:15.746Z,8.20
2022-08-05T08:36:29.666Z,8.40
2022-08-05T08:38:53.430Z,7.30
2022-08-05T08:40:59.918Z,6.80
2022-08-05T08:44:56.416Z,7.30
2022-08-05T08:45:31.734Z,6.70
2022-08-05T08:48:06.915Z,7.20
2022-08-05T08:50:32.240Z,8.40
2022-08-05T08:52:33.043Z,8.00
2022-08-05T08:54:38.573Z,7.70
2022-08-05T08:56:47.632Z,7.80
2022-08-05T08:58:54.958Z,6.60
2022-08-05T09:01:03.680Z,7.60
2022-08-05T09:03:09.217Z,8.60
2022-08-05T09:05:17.929Z,7.50
2022-08-05T09:07:28.437Z,8.80
2022-08-05T09:09:35.521Z,9.70
2022-08-05T09:11:53.637Z,7.90
2022-08-05T09:14:54.359Z,7.00
2022-08-05T09:16:26.832Z,9.80
2022-08-05T09:18:33.140Z,8.60
2022-08-05T09:20:38.448Z,7.50
2022-08-05T09:23:19.583Z,7.60
2022-08-05T09:26:02.328Z,8.20
2022-08-05T09:28:04.775Z,7.90
2022-08-05T09:30:16.325Z,6.20
2022-08-05T09:32:40.378Z,6.70
2022-08-05T09:34:56.988Z,7.70
2022-08-05T09:37:16.911Z,10.60
2022-08-05T09:39:22.183Z,8.20
2022-08-05T09:41:28.108Z,8.70
2022-08-05T09:43:41.651Z,7.20
2022-08-05T09:46:06.298Z,8.90
2022-08-05T09:48:26.854Z,7.70
2022-08-05T09:50:44.492Z,9.00
2022-08-05T09:52:58.730Z,6.70
2022-08-05T09:55:56.289Z,9.30
2022-08-05T09:57:35.382Z,8.20
2022-08-05T09:59:49.133Z,8.30
2022-08-05T10:01:58.151Z,8.10
2022-08-05T10:04:10.303Z,7.50
2022-08-05T10:06:19.408Z,7.20
2022-08-05T10:08:37.548Z,7.30
2022-08-05T10:10:50.411Z,8.00
2022-08-05T10:13:01.256Z,7.70
2022-08-05T10:15:34.389Z,8.70
2022-08-05T10:17:42.407Z,7.80
2022-08-05T10:20:04.149Z,6.70
2022-08-05T10:22:15.535Z,7.40
2022-08-05T10:24:35.226Z,8.60
2022-08-05T10:26:49.012Z,7.50
2022-08-05T10:28:56.968Z,7.80
2022-08-05T10:32:49.238Z,8.90
2022-08-05T10:33:28.794Z,8.00
2022-08-05T10:35:40.537Z,8.60
2022-08-05T10:37:49.676Z,9.50
2022-08-05T10:40:03.661Z,9.00
2022-08-05T10:42:33.437Z,9.60
2022-08-05T10:44:44.003Z,7.40
2022-08-05T10:46:54.321Z,9.20
2022-08-05T10:49:09.996Z,8.20
2022-08-05T10:51:22.275Z,9.20
2022-08-05T10:53:54.459Z,7.10
2022-08-05T10:56:14.619Z,7.70
2022-08-05T10:58:47.708Z,8.20
2022-08-05T11:00:55.305Z,8.20
2022-08-05T11:03:23.890Z,8.90
2022-08-05T11:05:31.854Z,8.60
2022-08-05T11:08:03.298Z,6.70
2022-08-05T11:10:27.589Z,8.70
2022-08-05T11:12:54.352Z,7.80
2022-08-05T11:15:19.113Z,9.50
2022-08-05T11:17:59.486Z,7.70
2022-08-05T11:20:11.015Z,7.80
2022-08-05T11:22:42.123Z,7.80
2022-08-05T11:26:03.217Z,8.80
2022-08-05T11:27:50.095Z,9.50
2022-08-05T11:30:02.583Z,7.50
2022-08-05T11:32:28.364Z,7.30
2022-08-05T11:34:52.063Z,7.10
2022-08-05T11:36:59.147Z,7.60
2022-08-05T11:39:04.220Z,9.10
2022-08-05T11:41:54.709Z,8.70
2022-08-05T11:44:01.070Z,7.20
2022-08-05T11:46:23.484Z,7.80
2022-08-05T11:48:29.682Z,8.60
2022-08-05T11:50:40.958Z,8.00
2022-08-05T11:52:48.472Z,7.50
2022-08-05T11:54:58.337Z,10.10
2022-08-05T11:57:08.288Z,7.90
2022-08-05T11:59:31.877Z,7.40
2022-08-05T12:01:59.910Z,8.60
2022-08-05T12:04:04.896Z,7.20
2022-08-05T12:06:10.914Z,9.00
2022-08-05T12:08:17.940Z,8.80
2022-08-05T12:10:43.771Z,9.30
2022-08-05T12:12:59.366Z,8.30
2022-08-05T12:15:05.697Z,7.80
2022-08-05T12:18:02.605Z,8.60
2022-08-05T12:20:26.677Z,8.90
2022-08-05T12:22:11.605Z,7.90
2022-08-05T12:24:18.290Z,8.40
2022-08-05T12:26:23.952Z,7.40
2022-08-05T12:28:37.132Z,6.90
2022-08-05T12:30:46.148Z,7.00
2022-08-05T12:32:51.234Z,7.20
2022-08-05T12:34:56.651Z,12.10
2022-08-05T12:37:06.448Z,8.50
2022-08-05T12:39:11.652Z,7.70
2022-08-05T12:41:17.312Z,7.50
2022-08-05T12:43:22.450Z,8.20
2022-08-05T12:45:42.703Z,8.00
2022-08-05T12:48:17.044Z,8.30
2022-08-05T12:50:19.765Z,8.50
2022-08-05T12:52:29.614Z,7.40
2022-08-05T12:54:42.583Z,6.90
2022-08-05T12:56:50.990Z,8.60
2022-08-05T12:59:23.849Z,6.70
2022-08-05T13:02:01.887Z,6.10
2022-08-05T13:03:57.365Z,5.60
2022-08-05T13:06:02.828Z,6.10
2022-08-05T13:08:08.650Z,5.60
2022-08-05T13:10:19.676Z,5.90
2022-08-05T13:12:28.382Z,6.10
2022-08-05T13:14:39.012Z,6.30
2022-08-05T13:16:54.838Z,6.30
2022-08-05T13:19:03.168Z,6.30
2022-08-05T13:21:09.859Z,5.90
2022-08-05T13:23:18.276Z,6.00
2022-08-05T13:25:52.556Z,6.30
2022-08-05T13:27:54.500Z,5.40
2022-08-05T13:30:33.920Z,5.60
2022-08-05T13:32:33.037Z,7.20
2022-08-05T13:34:40.916Z,5.30
2022-08-05T13:36:45.930Z,5.90
2022-08-05T13:38:52.076Z,5.70
2022-08-05T13:40:56.909Z,5.80
2022-08-05T13:43:01.767Z,5.90
2022-08-05T13:45:08.768Z,5.70
2022-08-05T13:47:35.429Z,6.20
2022-08-05T13:49:45.171Z,6.00
2022-08-05T13:54:21.001Z,6.20
2022-08-05T13:56:29.922Z,6.20
2022-08-05T13:58:35.109Z,6.00
2022-08-05T14:00:44.431Z,5.70
2022-08-05T14:02:52.349Z,5.90
2022-08-05T14:04:57.124Z,6.70
2022-08-05T14:07:11.967Z,6.40
2022-08-05T14:09:29.998Z,6.90
2022-08-05T14:11:34.713Z,6.00
2022-08-05T14:13:59.503Z,5.60
2022-08-05T14:16:11.472Z,5.90
2022-08-05T14:18:23.008Z,6.30
2022-08-05T14:20:28.995Z,6.20
2022-08-05T14:22:34.375Z,7.10
2022-08-05T14:24:39.428Z,6.20
2022-08-05T14:27:02.020Z,7.10
2022-08-05T14:29:16.435Z,6.60
2022-08-05T14:32:02.379Z,6.90
2022-08-05T14:34:00.027Z,6.20
2022-08-05T14:36:06.688Z,7.90
2022-08-05T14:38:31.571Z,9.00
2022-08-05T14:40:37.868Z,6.10
2022-08-05T14:42:43.110Z,6.00
2022-08-05T14:44:47.979Z,7.50
2022-08-05T14:46:52.688Z,6.40
2022-08-05T14:48:59.720Z,5.90
2022-08-05T14:51:16.153Z,6.60
2022-08-05T14:53:22.414Z,7.20
2022-08-05T14:55:38.327Z,6.70
2022-08-05T14:57:54.771Z,7.70
2022-08-05T15:00:01.347Z,6.10
2022-08-05T15:02:15.906Z,6.80
2022-08-05T15:04:22.263Z,6.50
2022-08-05T15:06:30.136Z,6.30
2022-08-05T15:08:58.646Z,7.70
2022-08-05T15:10:59.866Z,9.20
2022-08-05T15:13:05.033Z,7.40
2022-08-05T15:15:15.500Z,6.40
2022-08-05T15:17:47.637Z,7.20
2022-08-05T15:19:48.817Z,6.90
2022-08-05T15:21:53.994Z,7.30
2022-08-05T15:24:05.477Z,8.20
2022-08-05T15:26:10.926Z,7.60
2022-08-05T15:28:16.259Z,8.10
2022-08-05T15:30:21.213Z,5.90
2022-08-05T15:32:28.895Z,7.70
2022-08-05T15:34:34.154Z,7.00
2022-08-05T15:36:38.989Z,7.00
2022-08-05T15:38:43.850Z,7.90
2022-08-05T15:41:22.019Z,7.10
2022-08-05T15:43:19.765Z,7.80
2022-08-05T15:45:38.018Z,6.80
2022-08-05T15:47:45.012Z,7.80
2022-08-05T15:49:58.504Z,6.70
2022-08-05T15:52:14.213Z,7.50
2022-08-05T15:54:34.349Z,8.10
2022-08-05T15:56:40.146Z,7.30
2022-08-05T15:58:44.896Z,7.00
2022-08-05T16:01:03.584Z,7.20
2022-08-05T16:03:14.433Z,7.90
2022-08-05T16:05:19.664Z,7.70
2022-08-05T16:07:25.569Z,6.40
2022-08-05T16:09:34.569Z,6.60
2022-08-05T16:11:43.346Z,7.10
2022-08-05T16:13:48.714Z,7.20
2022-08-05T16:15:53.580Z,7.90
2022-08-05T16:17:58.575Z,6.10
2022-08-05T16:20:12.165Z,6.50
2022-08-05T16:22:17.304Z,7.00
2022-08-05T16:24:41.597Z,6.90
2022-08-05T16:26:55.000Z,7.50
2022-08-05T16:28:59.819Z,7.30
2022-08-05T16:31:05.817Z,7.20
2022-08-05T16:33:15.408Z,6.90
2022-08-05T16:35:20.444Z,7.80
2022-08-05T16:38:16.394Z,8.20
2022-08-05T16:40:06.366Z,7.10
2022-08-05T16:42:28.154Z,6.70
2022-08-05T16:44:33.231Z,7.20
2022-08-05T16:46:41.026Z,8.00
2022-08-05T16:48:46.083Z,6.40
2022-08-05T16:50:51.042Z,7.00
2022-08-05T16:52:56.555Z,7.10
2022-08-05T16:55:01.461Z,7.30
2022-08-05T16:57:22.019Z,7.30
2022-08-05T16:59:27.875Z,7.40
2022-08-05T17:01:52.956Z,7.50
2022-08-05T17:04:00.280Z,7.20
2022-08-05T17:06:05.197Z,7.60
2022-08-05T17:08:09.950Z,8.30
2022-08-05T17:10:18.258Z,8.40
2022-08-05T17:12:50.991Z,8.20
2022-08-05T17:14:47.880Z,8.20
2022-08-05T17:16:53.253Z,7.60
2022-08-05T17:18:58.866Z,8.10
2022-08-05T17:21:04.563Z,7.40
2022-08-05T17:23:09.676Z,6.90
2022-08-05T17:25:39.983Z,7.80
2022-08-05T17:27:46.020Z,8.60
2022-08-05T17:29:59.556Z,7.20
2022-08-05T17:32:06.282Z,7.60
2022-08-05T17:34:13.111Z,7.80
2022-08-05T17:36:33.797Z,6.80
2022-08-05T17:38:40.951Z,7.70
2022-08-05T17:40:46.078Z,6.90
2022-08-05T17:42:54.540Z,8.60
2022-08-05T17:44:59.855Z,7.20
2022-08-05T17:47:05.166Z,7.10
2022-08-05T17:49:09.851Z,8.10
2022-08-05T17:51:14.768Z,8.00
2022-08-05T17:53:29.811Z,7.40
2022-08-05T17:55:39.945Z,7.50
2022-08-05T17:57:48.637Z,7.50
2022-08-05T18:00:05.419Z,8.30
2022-08-05T18:02:11.102Z,7.00
2022-08-05T18:04:21.094Z,8.20
2022-08-05T18:06:32.425Z,9.80
2022-08-05T18:08:37.291Z,9.00
2022-08-05T18:10:45.625Z,11.80
2022-08-05T18:12:50.892Z,10.00
2022-08-05T18:14:55.740Z,8.50
2022-08-05T18:17:00.578Z,10.60
2022-08-05T18:19:06.441Z,9.80
2022-08-05T18:21:13.394Z,8.90
2022-08-05T18:23:24.647Z,9.00
2022-08-05T18:25:35.367Z,12.00
2022-08-05T18:27:40.842Z,11.60
2022-08-05T18:29:56.979Z,10.20
2022-08-05T18:32:01.783Z,9.00
2022-08-05T18:34:11.971Z,9.60
2022-08-05T18:36:17.824Z,9.70
2022-08-05T18:38:25.976Z,10.40
2022-08-05T18:41:53.923Z,12.70
2022-08-05T18:42:56.461Z,10.40
2022-08-05T18:45:01.884Z,11.10
2022-08-05T18:47:09.399Z,12.30
2022-08-05T18:49:17.310Z,11.10
2022-08-05T18:52:05.515Z,9.90
2022-08-05T18:53:50.121Z,12.60
2022-08-05T18:55:55.491Z,10.40
2022-08-05T18:58:03.208Z,11.80
2022-08-05T19:00:19.966Z,10.10
2022-08-05T19:02:28.101Z,10.10
2022-08-05T19:04:33.705Z,10.20
2022-08-05T19:06:58.955Z,10.20
2022-08-05T19:09:04.150Z,9.90
2022-08-05T19:11:09.165Z,11.30
2022-08-05T19:13:19.858Z,10.60
2022-08-05T19:15:59.347Z,10.90
2022-08-05T19:18:08.652Z,11.10
2022-08-05T19:20:15.122Z,11.30
2022-08-05T19:22:22.676Z,9.40
2022-08-05T19:24:34.390Z,10.00
2022-08-05T19:26:54.485Z,9.40
2022-08-05T19:28:59.928Z,10.20
2022-08-05T19:31:06.079Z,11.00
2022-08-05T19:33:16.806Z,10.70
2022-08-05T19:35:22.312Z,10.60
2022-08-05T19:37:29.923Z,10.70
2022-08-05T19:39:52.826Z,10.80
2022-08-05T19:42:07.635Z,10.90
2022-08-05T19:44:14.454Z,10.00
2022-08-05T19:46:29.446Z,11.10
2022-08-05T19:48:35.795Z,12.60
2022-08-05T19:50:41.186Z,14.30
2022-08-05T19:52:46.387Z,12.60
2022-08-05T19:54:53.034Z,13.00
2022-08-05T19:56:58.360Z,12.10
2022-08-05T19:59:51.096Z,12.00
2022-08-05T20:01:32.736Z,10.80
2022-08-05T20:03:40.706Z,11.40
2022-08-05T20:05:51.699Z,10.20
2022-08-05T20:07:58.909Z,10.30
2022-08-05T20:10:04.810Z,9.90
2022-08-05T20:12:17.142Z,12.10
2022-08-05T20:14:27.187Z,9.60
2022-08-05T20:16:32.696Z,10.10
2022-08-05T20:18:38.131Z,11.10
2022-08-05T20:20:46.763Z,11.00
2022-08-05T20:22:51.822Z,11.00
2022-08-05T20:24:56.930Z,9.80
2022-08-05T20:27:02.164Z,9.80
2022-08-05T20:29:07.182Z,13.90
2022-08-05T20:31:42.242Z,15.60
2022-08-05T20:33:55.997Z,11.60
2022-08-05T20:36:01.642Z,10.40
2022-08-05T20:38:08.391Z,11.10
2022-08-05T20:40:14.467Z,11.00
2022-08-05T20:42:22.947Z,9.40
2022-08-05T20:44:33.230Z,10.20
2022-08-05T20:46:42.907Z,10.10
2022-08-05T20:48:51.294Z,11.40
2022-08-05T20:50:56.430Z,9.30
2022-08-05T20:53:04.012Z,8.90
2022-08-05T20:55:56.219Z,10.00
2022-08-05T20:57:45.505Z,8.50
2022-08-05T21:00:19.638Z,9.30
2022-08-05T21:02:18.079Z,8.60
2022-08-05T21:04:23.019Z,10.30
2022-08-05T21:06:32.020Z,10.40
2022-08-05T21:08:42.445Z,9.50
2022-08-05T21:10:49.421Z,8.50
2022-08-05T21:13:08.857Z,8.80
2022-08-05T21:15:19.203Z,8.90
2022-08-05T21:17:24.097Z,8.80
2022-08-05T21:19:46.611Z,8.90
2022-08-05T21:21:52.926Z,8.00
2022-08-05T21:23:57.677Z,8.50
2022-08-05T21:26:02.441Z,8.30
2022-08-05T21:28:13.145Z,8.70
2022-08-05T21:30:23.985Z,9.10
2022-08-05T21:32:29.709Z,7.90
2022-08-05T21:34:35.631Z,8.20
2022-08-05T21:36:42.415Z,9.00
2022-08-05T21:38:51.280Z,8.00
2022-08-05T21:40:55.933Z,7.60
2022-08-05T21:43:00.848Z,7.60
2022-08-05T21:45:11.333Z,7.90
2022-08-05T21:47:17.611Z,9.00
2022-08-05T21:49:56.815Z,7.90
2022-08-05T21:52:15.993Z,7.80
2022-08-05T21:54:27.921Z,8.00
2022-08-05T21:56:35.800Z,8.20
2022-08-05T21:58:57.530Z,8.80
2022-08-05T22:01:03.149Z,8.20
2022-08-05T22:03:09.837Z,8.80
2022-08-05T22:05:15.136Z,7.50
2022-08-05T22:07:20.574Z,7.70
2022-08-05T22:09:46.228Z,8.50
2022-08-05T22:11:52.229Z,7.60
2022-08-05T22:14:05.633Z,8.10
2022-08-05T22:16:41.639Z,7.60
2022-08-05T22:18:49.164Z,8.40
2022-08-05T22:20:54.144Z,8.10
2022-08-05T22:23:00.102Z,7.90
2022-08-05T22:25:05.550Z,7.70
2022-08-05T22:27:22.884Z,8.80
2022-08-05T22:29:30.891Z,8.80
2022-08-05T22:31:44.746Z,7.10
2022-08-05T22:33:57.662Z,8.40
2022-08-05T22:36:06.724Z,7.30
2022-08-05T22:38:11.877Z,8.30
2022-08-05T22:40:20.435Z,7.10
2022-08-05T22:42:26.734Z,8.00
2022-08-05T22:44:32.663Z,8.00
2022-08-05T22:46:40.262Z,8.20
2022-08-05T22:48:45.467Z,11.40
2022-08-05T22:50:55.972Z,7.60
2022-08-05T22:53:01.298Z,8.80
2022-08-05T22:55:19.057Z,7.70
2022-08-05T22:57:25.285Z,7.30
2022-08-05T22:59:45.894Z,7.80
2022-08-05T23:02:05.800Z,7.50
2022-08-05T23:04:14.711Z,8.00
2022-08-05T23:06:19.542Z,7.90
2022-08-05T23:08:33.949Z,7.30
2022-08-05T23:10:40.969Z,7.40
2022-08-05T23:12:45.961Z,7.80
2022-08-05T23:14:51.438Z,7.50
2022-08-05T23:16:56.393Z,8.10
2022-08-05T23:19:03.127Z,7.90
2022-08-05T23:21:16.552Z,8.10
2022-08-05T23:23:21.474Z,8.10
2022-08-05T23:25:53.687Z,9.00
2022-08-05T23:28:00.298Z,8.40
2022-08-05T23:30:08.190Z,8.10
2022-08-05T23:32:15.913Z,11.70
2022-08-05T23:34:24.557Z,9.90
2022-08-05T23:36:39.866Z,10.20
2022-08-05T23:38:49.628Z,9.10
2022-08-05T23:40:54.635Z,9.70
2022-08-05T23:42:59.567Z,9.30
2022-08-05T23:45:05.419Z,8.40
2022-08-05T23:47:19.351Z,9.60
2022-08-05T23:49:35.864Z,9.00
2022-08-05T23:51:41.677Z,10.70
2022-08-05T23:53:47.189Z,9.60
2022-08-05T23:55:51.939Z,8.60
2022-08-05T23:57:57.375Z,10.60
